Aérodrome :
LOGIN :

S'inscrire | Disclaimer

   EN    FR    IT 

 










Légende :    VFR   VFR Marginal   IFR   IFR Intensif   IFR Très Intensif
Visi : 
Plafond : 
>= 8 km
>= 3000ft
5 à 8 km
1000 à 3000 ft
1500m à 5 km
500 à 1000 ft
800 à 1500m
200 à 500 ft
< 800m
< 200 ft
Symboles :   Orages  Brouillard  Fortes neiges  Fortes précipitations  Vent > 20 kt
SIGMETs :   Divers  Orages  Givrage  Turbulence  Onde Orograph.  Cendres Volcan.







- Altitude de l'aérodrome : 465 ft
- Code IATA : OMR


LROD - Oradea International

DERNIER METAR :
  • 171100Z 34005KT 300V010 CAVOK 23/04 Q1021

METARs EXPIRÉS :
  • 171030Z 36004KT 310V060 CAVOK 22/04 Q1022
  • 171000Z 33004KT 260V010 CAVOK 21/04 Q1022
  • 170930Z 33005KT 300V360 CAVOK 20/06 Q1022
  • 170900Z 34003KT 300V040 CAVOK 19/04 Q1023
  • 170830Z VRB01KT CAVOK 18/05 Q1023

TAF TAF LROD
Valide du 17 à 09h jusqu'au 17 à 18h UTC


170800Z 1709/1718 VRB04KT CAVOK
Pas de NOTAMs connus pour ce terrain.



MET'MAP, la Météo Aéronautique d'un coup d'oeil ! - Copyright ORBIFLY Décembre 2007 - Disclaimer

ORBIFLY MET'MAP TEAM :

Programmation & Développement : Alexandra Zaïnal
Conception & Développement : Baudouin d'Aumeries
Co-Programmation & Développement : Marc-Olivier Méhu
Soutien technique & logistique : Manuel Goepfert

Contact : metmap@orbifly.com




SOURCES & CREDITS :

   NOAA